sensor_id;sensor_type;location;lat;lon;timestamp;temperature;humidity
9980;DHT22;5030;51.532;6.766;2022-12-29T00:01:59;11.40;99.90
9980;DHT22;5030;51.532;6.766;2022-12-29T00:04:25;11.30;99.90
9980;DHT22;5030;51.532;6.766;2022-12-29T00:06:52;11.20;99.90
9980;DHT22;5030;51.532;6.766;2022-12-29T00:09:18;11.00;99.90
9980;DHT22;5030;51.532;6.766;2022-12-29T00:11:43;10.90;99.90
9980;DHT22;5030;51.532;6.766;2022-12-29T00:14:10;10.90;99.90
9980;DHT22;5030;51.532;6.766;2022-12-29T00:16:54;10.90;99.90
9980;DHT22;5030;51.532;6.766;2022-12-29T00:19:20;10.80;99.90
9980;DHT22;5030;51.532;6.766;2022-12-29T00:22:05;10.70;99.90
9980;DHT22;5030;51.532;6.766;2022-12-29T00:24:49;10.70;99.90
9980;DHT22;5030;51.532;6.766;2022-12-29T00:27:20;10.70;99.90
9980;DHT22;5030;51.532;6.766;2022-12-29T00:30:16;10.60;99.90
9980;DHT22;5030;51.532;6.766;2022-12-29T00:33:01;10.70;99.90
9980;DHT22;5030;51.532;6.766;2022-12-29T00:35:55;10.60;99.90
9980;DHT22;5030;51.532;6.766;2022-12-29T00:38:22;10.60;99.90
9980;DHT22;5030;51.532;6.766;2022-12-29T00:41:07;10.60;99.90
9980;DHT22;5030;51.532;6.766;2022-12-29T00:43:51;10.70;99.90
9980;DHT22;5030;51.532;6.766;2022-12-29T00:46:38;10.80;99.90
9980;DHT22;5030;51.532;6.766;2022-12-29T00:49:05;10.80;99.90
9980;DHT22;5030;51.532;6.766;2022-12-29T00:51:51;10.90;99.90
9980;DHT22;5030;51.532;6.766;2022-12-29T00:54:17;10.90;99.90
9980;DHT22;5030;51.532;6.766;2022-12-29T00:56:43;11.00;99.90
9980;DHT22;5030;51.532;6.766;2022-12-29T00:59:10;11.00;99.90
9980;DHT22;5030;51.532;6.766;2022-12-29T01:01:37;11.00;99.90
9980;DHT22;5030;51.532;6.766;2022-12-29T01:04:03;11.00;99.90
9980;DHT22;5030;51.532;6.766;2022-12-29T01:06:29;11.00;99.90
9980;DHT22;5030;51.532;6.766;2022-12-29T01:08:54;10.90;99.90
9980;DHT22;5030;51.532;6.766;2022-12-29T01:11:39;10.80;99.90
9980;DHT22;5030;51.532;6.766;2022-12-29T01:14:05;10.70;99.90
9980;DHT22;5030;51.532;6.766;2022-12-29T01:16:31;10.70;99.90
9980;DHT22;5030;51.532;6.766;2022-12-29T01:18:56;10.70;99.90
9980;DHT22;5030;51.532;6.766;2022-12-29T01:21:22;10.80;99.90
9980;DHT22;5030;51.532;6.766;2022-12-29T01:23:48;10.80;99.90
9980;DHT22;5030;51.532;6.766;2022-12-29T01:26:15;10.80;99.90
9980;DHT22;5030;51.532;6.766;2022-12-29T01:28:41;10.80;99.90
9980;DHT22;5030;51.532;6.766;2022-12-29T01:31:08;10.90;99.90
9980;DHT22;5030;51.532;6.766;2022-12-29T01:33:34;11.00;99.90
9980;DHT22;5030;51.532;6.766;2022-12-29T01:36:03;11.10;99.90
9980;DHT22;5030;51.532;6.766;2022-12-29T01:38:30;11.20;99.90
9980;DHT22;5030;51.532;6.766;2022-12-29T01:40:55;11.20;99.90
9980;DHT22;5030;51.532;6.766;2022-12-29T01:43:21;11.30;99.90
9980;DHT22;5030;51.532;6.766;2022-12-29T01:45:51;11.30;99.90
9980;DHT22;5030;51.532;6.766;2022-12-29T01:48:18;11.30;99.90
9980;DHT22;5030;51.532;6.766;2022-12-29T01:50:55;11.30;99.90
9980;DHT22;5030;51.532;6.766;2022-12-29T01:53:29;11.40;99.90
9980;DHT22;5030;51.532;6.766;2022-12-29T01:56:00;11.50;99.90
9980;DHT22;5030;51.532;6.766;2022-12-29T01:58:30;11.40;99.90
9980;DHT22;5030;51.532;6.766;2022-12-29T02:00:56;11.50;99.90
9980;DHT22;5030;51.532;6.766;2022-12-29T02:03:24;11.50;99.90
9980;DHT22;5030;51.532;6.766;2022-12-29T02:05:57;11.60;99.90
9980;DHT22;5030;51.532;6.766;2022-12-29T02:08:26;11.60;99.90
9980;DHT22;5030;51.532;6.766;2022-12-29T02:10:53;11.70;99.90
9980;DHT22;5030;51.532;6.766;2022-12-29T02:13:19;11.70;99.90
9980;DHT22;5030;51.532;6.766;2022-12-29T02:29:19;11.80;99.90
9980;DHT22;5030;51.532;6.766;2022-12-29T02:31:52;11.70;99.90
9980;DHT22;5030;51.532;6.766;2022-12-29T02:39:46;11.80;99.90
9980;DHT22;5030;51.532;6.766;2022-12-29T02:42:31;11.70;99.90
9980;DHT22;5030;51.532;6.766;2022-12-29T02:45:12;11.70;99.90
9980;DHT22;5030;51.532;6.766;2022-12-29T02:50:35;11.80;99.90
9980;DHT22;5030;51.532;6.766;2022-12-29T02:53:06;11.70;99.90
9980;DHT22;5030;51.532;6.766;2022-12-29T02:55:33;11.70;99.90
9980;DHT22;5030;51.532;6.766;2022-12-29T03:07:04;11.70;99.90
9980;DHT22;5030;51.532;6.766;2022-12-29T03:15:14;11.80;99.90
9980;DHT22;5030;51.532;6.766;2022-12-29T03:18:06;11.70;99.90
9980;DHT22;5030;51.532;6.766;2022-12-29T03:20:58;11.70;99.90
9980;DHT22;5030;51.532;6.766;2022-12-29T03:23:26;11.70;99.90
9980;DHT22;5030;51.532;6.766;2022-12-29T03:25:55;11.70;99.90
9980;DHT22;5030;51.532;6.766;2022-12-29T03:28:44;11.70;99.90
9980;DHT22;5030;51.532;6.766;2022-12-29T03:31:12;11.80;99.90
9980;DHT22;5030;51.532;6.766;2022-12-29T03:33:39;11.80;99.90
9980;DHT22;5030;51.532;6.766;2022-12-29T03:36:11;11.60;99.90
9980;DHT22;5030;51.532;6.766;2022-12-29T03:38:59;11.40;99.90
9980;DHT22;5030;51.532;6.766;2022-12-29T03:41:30;11.40;99.90
9980;DHT22;5030;51.532;6.766;2022-12-29T03:43:56;11.40;99.90
9980;DHT22;5030;51.532;6.766;2022-12-29T03:46:21;11.40;99.90
9980;DHT22;5030;51.532;6.766;2022-12-29T03:48:47;11.40;99.90
9980;DHT22;5030;51.532;6.766;2022-12-29T03:51:13;11.50;99.90
9980;DHT22;5030;51.532;6.766;2022-12-29T03:53:38;11.70;99.90
9980;DHT22;5030;51.532;6.766;2022-12-29T03:56:04;11.80;99.90
9980;DHT22;5030;51.532;6.766;2022-12-29T03:58:30;11.70;99.90
9980;DHT22;5030;51.532;6.766;2022-12-29T04:00:56;11.50;99.90
9980;DHT22;5030;51.532;6.766;2022-12-29T04:03:22;11.50;99.90
9980;DHT22;5030;51.532;6.766;2022-12-29T04:05:47;11.40;99.90
9980;DHT22;5030;51.532;6.766;2022-12-29T04:08:13;11.40;99.90
9980;DHT22;5030;51.532;6.766;2022-12-29T04:10:39;11.50;99.90
9980;DHT22;5030;51.532;6.766;2022-12-29T04:13:04;11.50;99.90
9980;DHT22;5030;51.532;6.766;2022-12-29T04:15:30;11.40;99.90
9980;DHT22;5030;51.532;6.766;2022-12-29T04:17:56;11.40;99.90
9980;DHT22;5030;51.532;6.766;2022-12-29T04:20:21;11.30;99.90
9980;DHT22;5030;51.532;6.766;2022-12-29T04:23:06;11.10;99.90
9980;DHT22;5030;51.532;6.766;2022-12-29T04:25:33;11.10;99.90
9980;DHT22;5030;51.532;6.766;2022-12-29T04:27:59;11.10;99.90
9980;DHT22;5030;51.532;6.766;2022-12-29T04:30:24;11.10;99.90
9980;DHT22;5030;51.532;6.766;2022-12-29T04:32:50;11.10;99.90
9980;DHT22;5030;51.532;6.766;2022-12-29T04:35:16;11.20;99.90
9980;DHT22;5030;51.532;6.766;2022-12-29T04:37:43;11.30;99.90
9980;DHT22;5030;51.532;6.766;2022-12-29T04:40:09;11.30;99.90
9980;DHT22;5030;51.532;6.766;2022-12-29T04:42:35;11.30;99.90
9980;DHT22;5030;51.532;6.766;2022-12-29T04:45:00;11.40;99.90
9980;DHT22;5030;51.532;6.766;2022-12-29T04:47:26;11.50;99.90
9980;DHT22;5030;51.532;6.766;2022-12-29T04:49:52;11.50;99.90
9980;DHT22;5030;51.532;6.766;2022-12-29T04:52:17;11.30;99.90
9980;DHT22;5030;51.532;6.766;2022-12-29T04:54:43;10.60;99.90
9980;DHT22;5030;51.532;6.766;2022-12-29T04:57:08;9.90;99.90
9980;DHT22;5030;51.532;6.766;2022-12-29T04:59:34;9.70;99.90
9980;DHT22;5030;51.532;6.766;2022-12-29T05:02:00;9.60;99.90
9980;DHT22;5030;51.532;6.766;2022-12-29T05:04:25;9.70;99.90
9980;DHT22;5030;51.532;6.766;2022-12-29T05:06:51;9.60;99.90
9980;DHT22;5030;51.532;6.766;2022-12-29T05:09:17;9.60;99.90
9980;DHT22;5030;51.532;6.766;2022-12-29T05:11:42;9.50;99.90
9980;DHT22;5030;51.532;6.766;2022-12-29T05:14:08;9.50;99.90
9980;DHT22;5030;51.532;6.766;2022-12-29T05:16:33;9.50;99.90
9980;DHT22;5030;51.532;6.766;2022-12-29T05:18:59;9.60;99.90
9980;DHT22;5030;51.532;6.766;2022-12-29T05:21:25;9.60;99.90
9980;DHT22;5030;51.532;6.766;2022-12-29T05:23:50;9.60;99.90
9980;DHT22;5030;51.532;6.766;2022-12-29T05:26:16;9.60;99.90
9980;DHT22;5030;51.532;6.766;2022-12-29T05:28:42;9.60;99.90
9980;DHT22;5030;51.532;6.766;2022-12-29T05:31:07;9.60;99.90
9980;DHT22;5030;51.532;6.766;2022-12-29T05:33:33;9.50;99.90
9980;DHT22;5030;51.532;6.766;2022-12-29T05:36:09;9.50;99.90
9980;DHT22;5030;51.532;6.766;2022-12-29T05:38:35;9.40;99.90
9980;DHT22;5030;51.532;6.766;2022-12-29T05:41:01;9.50;99.90
9980;DHT22;5030;51.532;6.766;2022-12-29T05:43:27;9.50;99.90
9980;DHT22;5030;51.532;6.766;2022-12-29T05:45:53;9.60;99.90
9980;DHT22;5030;51.532;6.766;2022-12-29T05:48:19;9.60;99.90
9980;DHT22;5030;51.532;6.766;2022-12-29T05:50:48;9.60;99.90
9980;DHT22;5030;51.532;6.766;2022-12-29T05:53:14;9.90;99.90
9980;DHT22;5030;51.532;6.766;2022-12-29T05:55:40;10.10;99.90
9980;DHT22;5030;51.532;6.766;2022-12-29T05:58:05;10.00;99.90
9980;DHT22;5030;51.532;6.766;2022-12-29T06:00:31;10.10;99.90
9980;DHT22;5030;51.532;6.766;2022-12-29T06:02:57;10.20;99.90
9980;DHT22;5030;51.532;6.766;2022-12-29T06:05:24;10.30;99.90
9980;DHT22;5030;51.532;6.766;2022-12-29T06:07:49;10.30;99.90
9980;DHT22;5030;51.532;6.766;2022-12-29T06:10:15;10.20;99.90
9980;DHT22;5030;51.532;6.766;2022-12-29T06:12:41;10.20;99.90
9980;DHT22;5030;51.532;6.766;2022-12-29T06:15:07;10.20;99.90
9980;DHT22;5030;51.532;6.766;2022-12-29T06:17:32;10.10;99.90
9980;DHT22;5030;51.532;6.766;2022-12-29T06:19:58;10.10;99.90
9980;DHT22;5030;51.532;6.766;2022-12-29T06:22:24;10.20;99.90
9980;DHT22;5030;51.532;6.766;2022-12-29T06:24:50;10.20;99.90
9980;DHT22;5030;51.532;6.766;2022-12-29T06:27:15;10.20;99.90
9980;DHT22;5030;51.532;6.766;2022-12-29T06:29:41;10.20;99.90
9980;DHT22;5030;51.532;6.766;2022-12-29T06:32:08;10.30;99.90
9980;DHT22;5030;51.532;6.766;2022-12-29T06:34:34;10.40;99.90
9980;DHT22;5030;51.532;6.766;2022-12-29T06:37:00;10.30;99.90
9980;DHT22;5030;51.532;6.766;2022-12-29T06:39:27;10.40;99.90
9980;DHT22;5030;51.532;6.766;2022-12-29T06:41:53;10.40;99.90
9980;DHT22;5030;51.532;6.766;2022-12-29T06:44:20;10.40;99.90
9980;DHT22;5030;51.532;6.766;2022-12-29T06:46:46;10.50;99.90
9980;DHT22;5030;51.532;6.766;2022-12-29T06:49:11;10.60;99.90
9980;DHT22;5030;51.532;6.766;2022-12-29T06:51:37;10.50;99.90
9980;DHT22;5030;51.532;6.766;2022-12-29T06:54:02;10.60;99.90
9980;DHT22;5030;51.532;6.766;2022-12-29T06:56:28;10.60;99.90
9980;DHT22;5030;51.532;6.766;2022-12-29T06:58:54;10.70;99.90
9980;DHT22;5030;51.532;6.766;2022-12-29T07:01:19;10.60;99.90
9980;DHT22;5030;51.532;6.766;2022-12-29T07:03:46;10.60;99.90
9980;DHT22;5030;51.532;6.766;2022-12-29T07:06:12;10.50;99.90
9980;DHT22;5030;51.532;6.766;2022-12-29T07:08:38;10.50;99.90
9980;DHT22;5030;51.532;6.766;2022-12-29T07:11:05;10.40;99.90
9980;DHT22;5030;51.532;6.766;2022-12-29T07:13:30;10.40;99.90
9980;DHT22;5030;51.532;6.766;2022-12-29T07:15:56;10.30;99.90
9980;DHT22;5030;51.532;6.766;2022-12-29T07:18:22;10.30;99.90
9980;DHT22;5030;51.532;6.766;2022-12-29T07:20:49;10.30;99.90
9980;DHT22;5030;51.532;6.766;2022-12-29T07:23:15;10.40;99.90
9980;DHT22;5030;51.532;6.766;2022-12-29T07:25:41;10.50;99.90
9980;DHT22;5030;51.532;6.766;2022-12-29T07:28:07;10.50;99.90
9980;DHT22;5030;51.532;6.766;2022-12-29T07:30:33;10.50;99.90
9980;DHT22;5030;51.532;6.766;2022-12-29T07:32:58;10.50;99.90
9980;DHT22;5030;51.532;6.766;2022-12-29T07:35:24;10.50;99.90
9980;DHT22;5030;51.532;6.766;2022-12-29T07:37:50;10.50;99.90
9980;DHT22;5030;51.532;6.766;2022-12-29T07:40:17;10.60;99.90
9980;DHT22;5030;51.532;6.766;2022-12-29T07:42:42;10.60;99.90
9980;DHT22;5030;51.532;6.766;2022-12-29T07:45:08;10.50;99.90
9980;DHT22;5030;51.532;6.766;2022-12-29T07:47:34;10.50;99.90
9980;DHT22;5030;51.532;6.766;2022-12-29T07:50:00;10.50;99.90
9980;DHT22;5030;51.532;6.766;2022-12-29T07:52:26;10.50;99.90
9980;DHT22;5030;51.532;6.766;2022-12-29T07:54:53;10.50;99.90
9980;DHT22;5030;51.532;6.766;2022-12-29T07:57:18;10.60;99.90
9980;DHT22;5030;51.532;6.766;2022-12-29T07:59:44;10.60;99.90
9980;DHT22;5030;51.532;6.766;2022-12-29T08:02:11;10.60;99.90
9980;DHT22;5030;51.532;6.766;2022-12-29T08:04:37;10.70;99.90
9980;DHT22;5030;51.532;6.766;2022-12-29T08:07:02;10.80;99.90
9980;DHT22;5030;51.532;6.766;2022-12-29T08:09:28;10.80;99.90
9980;DHT22;5030;51.532;6.766;2022-12-29T08:11:54;10.70;99.90
9980;DHT22;5030;51.532;6.766;2022-12-29T08:14:20;10.60;99.90
9980;DHT22;5030;51.532;6.766;2022-12-29T08:16:46;10.60;99.90
9980;DHT22;5030;51.532;6.766;2022-12-29T08:19:12;10.80;99.90
9980;DHT22;5030;51.532;6.766;2022-12-29T08:21:38;10.80;99.90
9980;DHT22;5030;51.532;6.766;2022-12-29T08:24:05;10.70;99.90
9980;DHT22;5030;51.532;6.766;2022-12-29T08:26:31;10.70;99.90
9980;DHT22;5030;51.532;6.766;2022-12-29T08:28:57;10.70;99.90
9980;DHT22;5030;51.532;6.766;2022-12-29T08:31:23;10.70;99.90
9980;DHT22;5030;51.532;6.766;2022-12-29T08:33:49;10.80;99.90
9980;DHT22;5030;51.532;6.766;2022-12-29T08:36:15;10.80;99.90
9980;DHT22;5030;51.532;6.766;2022-12-29T08:38:41;10.80;99.90
9980;DHT22;5030;51.532;6.766;2022-12-29T08:41:06;10.80;99.90
9980;DHT22;5030;51.532;6.766;2022-12-29T08:43:32;10.80;99.90
9980;DHT22;5030;51.532;6.766;2022-12-29T08:45:59;10.80;99.90
9980;DHT22;5030;51.532;6.766;2022-12-29T08:48:25;10.70;99.90
9980;DHT22;5030;51.532;6.766;2022-12-29T08:50:51;10.70;99.90
9980;DHT22;5030;51.532;6.766;2022-12-29T08:53:17;10.70;99.90
9980;DHT22;5030;51.532;6.766;2022-12-29T08:55:47;10.70;99.90
9980;DHT22;5030;51.532;6.766;2022-12-29T08:58:13;10.80;99.90
9980;DHT22;5030;51.532;6.766;2022-12-29T09:00:41;10.80;99.90
9980;DHT22;5030;51.532;6.766;2022-12-29T09:03:06;10.90;99.90
9980;DHT22;5030;51.532;6.766;2022-12-29T09:05:32;11.00;99.90
9980;DHT22;5030;51.532;6.766;2022-12-29T09:07:57;11.20;99.90
9980;DHT22;5030;51.532;6.766;2022-12-29T09:10:23;11.30;99.90
9980;DHT22;5030;51.532;6.766;2022-12-29T09:12:49;11.30;99.90
9980;DHT22;5030;51.532;6.766;2022-12-29T09:15:14;11.30;99.90
9980;DHT22;5030;51.532;6.766;2022-12-29T09:17:41;11.40;99.90
9980;DHT22;5030;51.532;6.766;2022-12-29T09:20:17;11.40;99.90
9980;DHT22;5030;51.532;6.766;2022-12-29T09:22:44;11.30;99.90
9980;DHT22;5030;51.532;6.766;2022-12-29T09:25:11;11.30;99.90
9980;DHT22;5030;51.532;6.766;2022-12-29T09:27:37;11.20;99.90
9980;DHT22;5030;51.532;6.766;2022-12-29T09:30:08;11.20;99.90
9980;DHT22;5030;51.532;6.766;2022-12-29T09:32:34;11.20;99.90
9980;DHT22;5030;51.532;6.766;2022-12-29T09:35:00;11.10;99.90
9980;DHT22;5030;51.532;6.766;2022-12-29T09:37:26;11.20;99.90
9980;DHT22;5030;51.532;6.766;2022-12-29T09:39:52;11.20;99.90
9980;DHT22;5030;51.532;6.766;2022-12-29T09:45:20;11.20;99.90
9980;DHT22;5030;51.532;6.766;2022-12-29T09:47:50;11.20;99.90
9980;DHT22;5030;51.532;6.766;2022-12-29T09:50:35;11.20;99.90
9980;DHT22;5030;51.532;6.766;2022-12-29T09:53:09;11.20;99.90
9980;DHT22;5030;51.532;6.766;2022-12-29T09:55:44;11.20;99.90
9980;DHT22;5030;51.532;6.766;2022-12-29T09:58:39;11.30;99.90
9980;DHT22;5030;51.532;6.766;2022-12-29T10:02:04;11.40;99.90
9980;DHT22;5030;51.532;6.766;2022-12-29T10:04:28;11.50;99.90
9980;DHT22;5030;51.532;6.766;2022-12-29T10:07:05;11.50;99.90
9980;DHT22;5030;51.532;6.766;2022-12-29T10:25:58;11.50;99.90
9980;DHT22;5030;51.532;6.766;2022-12-29T10:28:34;11.50;99.90
9980;DHT22;5030;51.532;6.766;2022-12-29T10:31:04;11.60;99.90
9980;DHT22;5030;51.532;6.766;2022-12-29T10:33:42;11.60;99.90
9980;DHT22;5030;51.532;6.766;2022-12-29T10:36:22;11.60;99.90
9980;DHT22;5030;51.532;6.766;2022-12-29T10:39:07;11.60;99.90
9980;DHT22;5030;51.532;6.766;2022-12-29T10:41:46;11.60;99.90
9980;DHT22;5030;51.532;6.766;2022-12-29T10:44:16;11.60;99.90
9980;DHT22;5030;51.532;6.766;2022-12-29T10:46:42;11.50;99.90
9980;DHT22;5030;51.532;6.766;2022-12-29T10:49:17;11.60;99.90
9980;DHT22;5030;51.532;6.766;2022-12-29T10:51:45;11.60;99.90
9980;DHT22;5030;51.532;6.766;2022-12-29T10:54:27;11.60;99.90
9980;DHT22;5030;51.532;6.766;2022-12-29T10:57:10;11.50;99.90
9980;DHT22;5030;51.532;6.766;2022-12-29T10:59:39;11.60;99.90
9980;DHT22;5030;51.532;6.766;2022-12-29T11:07:33;11.40;99.90
9980;DHT22;5030;51.532;6.766;2022-12-29T11:10:59;11.40;99.90
9980;DHT22;5030;51.532;6.766;2022-12-29T11:13:27;11.40;99.90
9980;DHT22;5030;51.532;6.766;2022-12-29T11:15:53;11.50;99.90
9980;DHT22;5030;51.532;6.766;2022-12-29T11:20:56;11.60;99.30
9980;DHT22;5030;51.532;6.766;2022-12-29T11:23:41;11.60;99.90
9980;DHT22;5030;51.532;6.766;2022-12-29T11:26:17;11.50;99.50
9980;DHT22;5030;51.532;6.766;2022-12-29T11:29:03;11.50;99.90
9980;DHT22;5030;51.532;6.766;2022-12-29T11:31:31;11.50;98.50
9980;DHT22;5030;51.532;6.766;2022-12-29T11:33:56;11.60;97.80
9980;DHT22;5030;51.532;6.766;2022-12-29T11:36:23;11.60;98.60
9980;DHT22;5030;51.532;6.766;2022-12-29T11:38:52;11.50;99.00
9980;DHT22;5030;51.532;6.766;2022-12-29T11:41:29;11.50;99.80
9980;DHT22;5030;51.532;6.766;2022-12-29T11:43:58;11.50;99.90
9980;DHT22;5030;51.532;6.766;2022-12-29T11:46:33;11.60;98.70
9980;DHT22;5030;51.532;6.766;2022-12-29T11:49:00;11.60;98.90
9980;DHT22;5030;51.532;6.766;2022-12-29T11:51:38;11.50;97.80
9980;DHT22;5030;51.532;6.766;2022-12-29T11:54:05;11.50;97.50
9980;DHT22;5030;51.532;6.766;2022-12-29T11:56:38;11.40;99.60
9980;DHT22;5030;51.532;6.766;2022-12-29T12:01:58;11.50;99.20
9980;DHT22;5030;51.532;6.766;2022-12-29T12:04:30;11.40;98.60
9980;DHT22;5030;51.532;6.766;2022-12-29T12:12:14;11.50;97.60
9980;DHT22;5030;51.532;6.766;2022-12-29T12:14:54;11.60;98.00
9980;DHT22;5030;51.532;6.766;2022-12-29T12:20:36;11.50;98.80
9980;DHT22;5030;51.532;6.766;2022-12-29T12:23:43;11.50;98.50
9980;DHT22;5030;51.532;6.766;2022-12-29T12:26:16;11.40;98.60
9980;DHT22;5030;51.532;6.766;2022-12-29T12:28:56;11.40;99.90
9980;DHT22;5030;51.532;6.766;2022-12-29T12:34:17;11.40;99.90
9980;DHT22;5030;51.532;6.766;2022-12-29T12:42:35;11.30;99.90
9980;DHT22;5030;51.532;6.766;2022-12-29T12:45:29;11.30;99.90
9980;DHT22;5030;51.532;6.766;2022-12-29T12:48:30;11.30;99.90
9980;DHT22;5030;51.532;6.766;2022-12-29T12:51:32;11.30;99.90
9980;DHT22;5030;51.532;6.766;2022-12-29T12:57:08;11.30;99.90
9980;DHT22;5030;51.532;6.766;2022-12-29T13:18:22;11.50;99.90
9980;DHT22;5030;51.532;6.766;2022-12-29T13:26:44;11.50;99.90
9980;DHT22;5030;51.532;6.766;2022-12-29T13:37:01;11.40;99.90
9980;DHT22;5030;51.532;6.766;2022-12-29T13:39:43;11.40;99.90
9980;DHT22;5030;51.532;6.766;2022-12-29T13:42:11;11.40;99.90
9980;DHT22;5030;51.532;6.766;2022-12-29T13:47:41;11.40;99.90
9980;DHT22;5030;51.532;6.766;2022-12-29T13:50:19;11.40;99.90
9980;DHT22;5030;51.532;6.766;2022-12-29T13:55:55;11.40;99.90
9980;DHT22;5030;51.532;6.766;2022-12-29T14:05:01;11.20;99.90
9980;DHT22;5030;51.532;6.766;2022-12-29T14:07:28;11.00;99.90
9980;DHT22;5030;51.532;6.766;2022-12-29T14:09:55;11.00;99.90
9980;DHT22;5030;51.532;6.766;2022-12-29T14:12:28;10.90;99.90
9980;DHT22;5030;51.532;6.766;2022-12-29T14:17:37;10.80;99.90
9980;DHT22;5030;51.532;6.766;2022-12-29T14:20:05;10.80;99.90
9980;DHT22;5030;51.532;6.766;2022-12-29T14:28:32;10.50;99.90
9980;DHT22;5030;51.532;6.766;2022-12-29T14:31:33;10.50;99.90
9980;DHT22;5030;51.532;6.766;2022-12-29T14:36:38;10.60;99.90
9980;DHT22;5030;51.532;6.766;2022-12-29T14:42:19;10.60;99.90
9980;DHT22;5030;51.532;6.766;2022-12-29T14:45:02;10.60;99.90
9980;DHT22;5030;51.532;6.766;2022-12-29T14:47:35;10.60;99.90
9980;DHT22;5030;51.532;6.766;2022-12-29T14:53:00;10.60;99.90
9980;DHT22;5030;51.532;6.766;2022-12-29T14:58:04;10.70;99.90
9980;DHT22;5030;51.532;6.766;2022-12-29T15:00:34;10.70;99.90
9980;DHT22;5030;51.532;6.766;2022-12-29T15:05:53;10.80;99.90
9980;DHT22;5030;51.532;6.766;2022-12-29T15:08:26;10.80;99.90
9980;DHT22;5030;51.532;6.766;2022-12-29T15:11:03;10.80;99.90
9980;DHT22;5030;51.532;6.766;2022-12-29T15:13:35;10.70;99.90
9980;DHT22;5030;51.532;6.766;2022-12-29T15:16:03;10.80;99.90
9980;DHT22;5030;51.532;6.766;2022-12-29T15:18:31;10.70;99.90
9980;DHT22;5030;51.532;6.766;2022-12-29T15:20:59;10.70;99.90
9980;DHT22;5030;51.532;6.766;2022-12-29T15:23:27;10.70;99.90
9980;DHT22;5030;51.532;6.766;2022-12-29T15:26:03;10.70;99.90
9980;DHT22;5030;51.532;6.766;2022-12-29T15:28:44;10.60;99.90
9980;DHT22;5030;51.532;6.766;2022-12-29T15:31:23;10.60;99.90
9980;DHT22;5030;51.532;6.766;2022-12-29T15:33:55;10.60;99.90
9980;DHT22;5030;51.532;6.766;2022-12-29T15:36:28;10.60;99.90
9980;DHT22;5030;51.532;6.766;2022-12-29T15:38:55;10.60;99.90
9980;DHT22;5030;51.532;6.766;2022-12-29T15:41:25;10.60;99.90
9980;DHT22;5030;51.532;6.766;2022-12-29T15:44:09;10.60;99.90
9980;DHT22;5030;51.532;6.766;2022-12-29T15:46:36;10.50;99.90
9980;DHT22;5030;51.532;6.766;2022-12-29T15:49:06;10.40;99.90
9980;DHT22;5030;51.532;6.766;2022-12-29T15:51:38;10.20;99.90
9980;DHT22;5030;51.532;6.766;2022-12-29T15:54:04;10.20;99.90
9980;DHT22;5030;51.532;6.766;2022-12-29T15:56:31;10.10;99.90
9980;DHT22;5030;51.532;6.766;2022-12-29T15:58:59;10.20;99.90
9980;DHT22;5030;51.532;6.766;2022-12-29T16:01:30;10.20;99.90
9980;DHT22;5030;51.532;6.766;2022-12-29T16:03:57;10.20;99.90
9980;DHT22;5030;51.532;6.766;2022-12-29T16:11:29;10.30;99.90
9980;DHT22;5030;51.532;6.766;2022-12-29T16:13:56;10.40;99.90
9980;DHT22;5030;51.532;6.766;2022-12-29T16:16:29;10.40;99.90
9980;DHT22;5030;51.532;6.766;2022-12-29T16:18:58;10.40;99.90
9980;DHT22;5030;51.532;6.766;2022-12-29T16:21:27;10.40;99.90
9980;DHT22;5030;51.532;6.766;2022-12-29T16:23:55;10.40;99.90
9980;DHT22;5030;51.532;6.766;2022-12-29T16:26:23;10.30;99.90
9980;DHT22;5030;51.532;6.766;2022-12-29T16:28:54;10.10;99.90
9980;DHT22;5030;51.532;6.766;2022-12-29T16:31:33;10.00;99.90
9980;DHT22;5030;51.532;6.766;2022-12-29T16:34:11;9.80;99.90
9980;DHT22;5030;51.532;6.766;2022-12-29T16:36:52;9.50;99.90
9980;DHT22;5030;51.532;6.766;2022-12-29T16:42:01;9.10;99.90
9980;DHT22;5030;51.532;6.766;2022-12-29T16:44:46;9.00;99.90
9980;DHT22;5030;51.532;6.766;2022-12-29T16:49:39;8.60;99.90
9980;DHT22;5030;51.532;6.766;2022-12-29T16:52:35;8.50;99.90
9980;DHT22;5030;51.532;6.766;2022-12-29T16:55:01;8.40;99.90
9980;DHT22;5030;51.532;6.766;2022-12-29T16:57:31;8.40;99.90
9980;DHT22;5030;51.532;6.766;2022-12-29T17:00:17;8.20;99.90
9980;DHT22;5030;51.532;6.766;2022-12-29T17:02:43;8.10;99.90
9980;DHT22;5030;51.532;6.766;2022-12-29T17:05:16;7.90;99.90
9980;DHT22;5030;51.532;6.766;2022-12-29T17:07:43;7.80;99.90
9980;DHT22;5030;51.532;6.766;2022-12-29T17:10:15;7.60;99.90
9980;DHT22;5030;51.532;6.766;2022-12-29T17:12:43;7.60;99.90
9980;DHT22;5030;51.532;6.766;2022-12-29T17:15:26;7.50;99.90
9980;DHT22;5030;51.532;6.766;2022-12-29T17:17:54;7.40;99.90
9980;DHT22;5030;51.532;6.766;2022-12-29T17:20:26;7.40;99.90
9980;DHT22;5030;51.532;6.766;2022-12-29T17:22:52;7.50;99.90
9980;DHT22;5030;51.532;6.766;2022-12-29T17:25:33;7.50;99.90
9980;DHT22;5030;51.532;6.766;2022-12-29T17:28:20;7.40;99.90
9980;DHT22;5030;51.532;6.766;2022-12-29T17:30:47;7.50;99.90
9980;DHT22;5030;51.532;6.766;2022-12-29T17:33:14;7.30;99.90
9980;DHT22;5030;51.532;6.766;2022-12-29T17:35:41;7.40;99.90
9980;DHT22;5030;51.532;6.766;2022-12-29T17:38:28;7.40;99.90
9980;DHT22;5030;51.532;6.766;2022-12-29T17:40:54;7.50;99.90
9980;DHT22;5030;51.532;6.766;2022-12-29T17:43:20;7.50;99.90
9980;DHT22;5030;51.532;6.766;2022-12-29T17:45:52;7.50;99.90
9980;DHT22;5030;51.532;6.766;2022-12-29T17:48:20;7.50;99.90
9980;DHT22;5030;51.532;6.766;2022-12-29T17:50:47;7.50;99.90
9980;DHT22;5030;51.532;6.766;2022-12-29T17:53:16;7.40;99.90
9980;DHT22;5030;51.532;6.766;2022-12-29T17:55:44;7.40;99.90
9980;DHT22;5030;51.532;6.766;2022-12-29T17:58:31;7.20;99.90
9980;DHT22;5030;51.532;6.766;2022-12-29T18:00:59;7.10;99.90
9980;DHT22;5030;51.532;6.766;2022-12-29T18:03:39;7.10;99.90
9980;DHT22;5030;51.532;6.766;2022-12-29T18:06:06;7.10;99.90
9980;DHT22;5030;51.532;6.766;2022-12-29T18:08:36;7.10;99.90
9980;DHT22;5030;51.532;6.766;2022-12-29T18:11:04;7.00;99.90
9980;DHT22;5030;51.532;6.766;2022-12-29T18:13:31;7.00;99.90
9980;DHT22;5030;51.532;6.766;2022-12-29T18:15:59;7.00;99.90
9980;DHT22;5030;51.532;6.766;2022-12-29T18:18:26;7.00;99.90
9980;DHT22;5030;51.532;6.766;2022-12-29T18:20:54;7.00;99.90
9980;DHT22;5030;51.532;6.766;2022-12-29T18:23:31;7.00;99.90
9980;DHT22;5030;51.532;6.766;2022-12-29T18:26:02;7.00;99.90
9980;DHT22;5030;51.532;6.766;2022-12-29T18:28:28;7.00;99.90
9980;DHT22;5030;51.532;6.766;2022-12-29T18:30:59;7.00;99.90
9980;DHT22;5030;51.532;6.766;2022-12-29T18:33:26;6.90;99.90
9980;DHT22;5030;51.532;6.766;2022-12-29T18:36:01;6.90;99.90
9980;DHT22;5030;51.532;6.766;2022-12-29T18:38:29;7.00;99.90
9980;DHT22;5030;51.532;6.766;2022-12-29T18:40:55;7.10;99.90
9980;DHT22;5030;51.532;6.766;2022-12-29T18:43:21;7.10;99.90
9980;DHT22;5030;51.532;6.766;2022-12-29T18:45:47;7.10;99.90
9980;DHT22;5030;51.532;6.766;2022-12-29T18:48:14;7.20;99.90
9980;DHT22;5030;51.532;6.766;2022-12-29T18:50:42;7.20;99.90
9980;DHT22;5030;51.532;6.766;2022-12-29T18:53:37;7.30;99.90
9980;DHT22;5030;51.532;6.766;2022-12-29T18:56:04;7.40;99.90
9980;DHT22;5030;51.532;6.766;2022-12-29T18:58:32;7.30;99.90
9980;DHT22;5030;51.532;6.766;2022-12-29T19:00:58;7.30;99.90
9980;DHT22;5030;51.532;6.766;2022-12-29T19:03:25;7.30;99.90
9980;DHT22;5030;51.532;6.766;2022-12-29T19:05:51;7.40;99.90
9980;DHT22;5030;51.532;6.766;2022-12-29T19:08:17;7.30;99.90
9980;DHT22;5030;51.532;6.766;2022-12-29T19:10:44;7.20;99.90